Time;durP1;ratioP1;P1;durP2;ratioP2;P2;SDS_P1;SDS_P2;PMS_P1;PMS_P2;Temp;Humidity;BMP_temperature;BMP_pressure;BME280_temperature;BME280_humidity;BME280_pressure;Samples;Min_cycle;Max_cycle;Signal;HPM_P1;HPM_P2
2022/04/08 00:01:44;;;;;;;4.50;2.50;;;;;;;11.49;73.27;96508.98;105361;1268;62054;-73
2022/04/08 00:04:11;;;;;;;3.50;2.30;;;;;;;11.35;73.51;96509.47;105355;1268;62098;-71
2022/04/08 00:06:37;;;;;;;3.90;2.40;;;;;;;11.21;74.51;96495.28;105369;1268;62201;-72
2022/04/08 00:09:04;;;;;;;3.80;2.60;;;;;;;11.10;74.83;96497.20;105385;1267;62066;-73
2022/04/08 00:11:30;;;;;;;5.20;3.00;;;;;;;11.00;75.96;96519.81;105315;1271;61912;-73
2022/04/08 00:13:57;;;;;;;5.10;3.00;;;;;;;10.92;76.14;96520.86;105421;1268;62203;-71
2022/04/08 00:16:23;;;;;;;6.50;3.10;;;;;;;10.83;78.41;96518.45;105132;1268;62406;-73
2022/04/08 00:18:50;;;;;;;7.30;3.40;;;;;;;10.68;80.56;96516.52;105402;1268;62279;-71
2022/04/08 00:21:16;;;;;;;5.00;3.60;;;;;;;10.52;82.16;96514.36;105104;1269;62189;-70
2022/04/08 00:23:43;;;;;;;4.80;3.90;;;;;;;10.39;84.10;96534.60;105406;1268;62633;-71
2022/04/08 00:26:10;;;;;;;4.10;3.70;;;;;;;10.25;85.18;96543.55;105386;1268;69189;-71
2022/04/08 00:28:37;;;;;;;4.30;3.20;;;;;;;10.15;86.25;96549.23;105417;1268;73489;-71
2022/04/08 00:31:04;;;;;;;7.00;4.10;;;;;;;10.05;86.38;96553.09;105437;1268;62268;-72
2022/04/08 00:33:34;;;;;;;5.10;4.20;;;;;;;9.98;86.23;96554.63;105414;1268;62048;-72
2022/04/08 00:36:01;;;;;;;7.40;4.90;;;;;;;9.91;86.58;96555.14;105361;1268;77079;-73
2022/04/08 00:38:28;;;;;;;6.50;4.50;;;;;;;9.85;86.30;96561.92;105374;1268;70127;-72
2022/04/08 00:40:54;;;;;;;4.50;4.00;;;;;;;9.82;85.95;96560.17;105691;1268;74587;-72
2022/04/08 00:43:38;;;;;;;2.50;2.30;;;;;;;9.80;86.30;96564.61;105667;1268;62221;-72
2022/04/08 00:46:07;;;;;;;3.80;2.60;;;;;;;9.78;86.98;96568.33;105362;1268;62075;-72
2022/04/08 00:48:34;;;;;;;2.10;1.60;;;;;;;9.78;86.32;96576.87;105599;1268;76060;-73
2022/04/08 00:51:01;;;;;;;1.90;1.60;;;;;;;9.77;86.90;96588.66;105288;1268;70528;-72
2022/04/08 00:53:30;;;;;;;1.60;1.20;;;;;;;9.76;86.01;96596.21;105393;1268;73163;-72
2022/04/08 00:55:57;;;;;;;2.00;1.00;;;;;;;9.77;85.59;96600.88;105250;1268;216986;-74
2022/04/08 00:58:25;;;;;;;1.20;0.90;;;;;;;9.78;84.93;96608.59;105394;1268;61989;-71
2022/04/08 01:00:52;;;;;;;3.00;1.40;;;;;;;9.81;84.33;96607.77;105436;1268;77800;-72
2022/04/08 01:03:19;;;;;;;5.60;3.60;;;;;;;9.82;82.71;96606.91;105432;1268;69488;-73
2022/04/08 01:05:45;;;;;;;1.00;0.60;;;;;;;9.86;81.67;96609.48;105394;1268;62038;-73
2022/04/08 01:08:14;;;;;;;1.90;0.50;;;;;;;9.91;79.89;96614.92;105376;1268;62081;-72
2022/04/08 01:10:43;;;;;;;1.10;0.50;;;;;;;9.93;77.68;96618.94;105487;1268;61999;-73
2022/04/08 01:13:09;;;;;;;4.50;0.70;;;;;;;9.94;76.50;96617.60;105145;1268;75961;-72
2022/04/08 01:15:36;;;;;;;2.90;0.60;;;;;;;9.94;74.36;96620.27;105302;1270;70337;-73
2022/04/08 01:18:05;;;;;;;0.70;0.50;;;;;;;9.94;73.50;96619.23;105415;1268;62076;-73
2022/04/08 01:20:33;;;;;;;2.40;0.60;;;;;;;9.96;71.57;96624.27;105292;1268;62068;-73
2022/04/08 01:22:59;;;;;;;1.70;0.70;;;;;;;9.98;70.98;96619.98;105425;1268;62110;-72
2022/04/08 01:25:26;;;;;;;1.50;0.70;;;;;;;9.98;71.13;96628.34;105397;1268;77055;-71
2022/04/08 01:27:53;;;;;;;1.90;0.90;;;;;;;9.96;69.93;96632.47;105115;1268;67372;-72
2022/04/08 01:30:19;;;;;;;2.90;0.70;;;;;;;9.94;69.06;96630.43;105367;1268;74464;-73
2022/04/08 01:32:46;;;;;;;2.40;0.60;;;;;;;9.92;67.64;96626.83;105396;1268;62062;-71
2022/04/08 01:35:13;;;;;;;3.60;0.80;;;;;;;9.92;66.65;96632.02;105417;1268;62042;-72
2022/04/08 01:37:39;;;;;;;2.30;0.80;;;;;;;9.90;65.98;96631.45;105392;1268;77460;-72
2022/04/08 01:40:07;;;;;;;1.90;0.90;;;;;;;9.88;66.56;96640.00;105408;1268;69327;-72
2022/04/08 01:42:34;;;;;;;1.80;0.90;;;;;;;9.86;65.17;96638.93;105455;1268;74244;-72
2022/04/08 01:45:00;;;;;;;3.30;0.90;;;;;;;9.87;65.19;96650.19;105374;1268;62048;-71
2022/04/08 01:47:27;;;;;;;3.60;1.20;;;;;;;9.87;64.43;96650.72;105404;1268;62171;-72
2022/04/08 01:49:53;;;;;;;2.50;0.60;;;;;;;9.87;64.82;96649.48;105103;1268;62103;-73
2022/04/08 01:52:20;;;;;;;2.20;0.90;;;;;;;9.85;64.59;96659.82;105392;1268;62123;-73
2022/04/08 01:54:46;;;;;;;1.70;0.60;;;;;;;9.84;63.95;96670.70;105006;1268;62106;-73
2022/04/08 01:57:13;;;;;;;1.20;0.50;;;;;;;9.86;63.78;96676.21;105400;1268;62071;-72
2022/04/08 01:59:40;;;;;;;1.30;0.40;;;;;;;9.86;63.65;96674.41;105411;1268;62065;-72
2022/04/08 02:02:06;;;;;;;3.50;0.90;;;;;;;9.86;63.59;96678.58;105385;1267;74105;-71
2022/04/08 02:04:33;;;;;;;1.10;0.70;;;;;;;9.84;63.75;96681.02;105410;1268;62071;-70
2022/04/08 02:07:02;;;;;;;3.90;1.00;;;;;;;9.83;63.41;96688.63;105359;1268;62078;-72
2022/04/08 02:09:28;;;;;;;1.70;0.50;;;;;;;9.81;63.22;96698.73;105080;1268;62098;-73
2022/04/08 02:11:55;;;;;;;1.30;0.80;;;;;;;9.80;63.30;96697.96;105410;1268;62030;-73
2022/04/08 02:14:22;;;;;;;1.70;0.80;;;;;;;9.78;63.10;96692.98;105401;1268;75366;-72
2022/04/08 02:16:48;;;;;;;3.10;1.10;;;;;;;9.76;63.42;96698.84;105432;1268;70627;-72
2022/04/08 02:19:15;;;;;;;3.50;1.30;;;;;;;9.73;63.23;96705.91;105395;1268;73239;-72
2022/04/08 02:21:43;;;;;;;3.20;1.20;;;;;;;9.71;63.66;96714.30;105387;1268;62076;-72
2022/04/08 02:24:11;;;;;;;1.90;1.10;;;;;;;9.66;63.19;96717.42;105457;1268;62082;-73
2022/04/08 02:26:37;;;;;;;2.70;0.80;;;;;;;9.63;62.84;96711.86;105400;1268;76998;-72
2022/04/08 02:29:04;;;;;;;1.90;0.80;;;;;;;9.62;62.11;96711.40;105396;1267;62155;-73
2022/04/08 02:31:30;;;;;;;3.40;0.80;;;;;;;9.62;61.44;96707.75;105421;1268;62189;-72
2022/04/08 02:33:57;;;;;;;1.50;1.10;;;;;;;9.61;61.62;96707.09;105380;1268;62069;-72
2022/04/08 02:36:23;;;;;;;1.90;0.90;;;;;;;9.59;60.97;96713.17;105378;1268;62165;-73
2022/04/08 02:38:50;;;;;;;0.90;0.60;;;;;;;9.55;60.89;96711.94;105369;1268;62114;-73
2022/04/08 02:41:16;;;;;;;5.10;1.30;;;;;;;9.51;60.75;96717.11;105413;1266;62071;-72
2022/04/08 02:43:43;;;;;;;3.10;1.10;;;;;;;9.47;60.82;96725.33;105378;1268;62117;-72
2022/04/08 02:46:09;;;;;;;3.20;0.80;;;;;;;9.42;60.84;96730.98;105411;1267;62143;-71
2022/04/08 02:48:36;;;;;;;2.20;0.90;;;;;;;9.36;61.23;96737.25;105398;1268;62039;-72
2022/04/08 02:51:02;;;;;;;2.90;1.40;;;;;;;9.32;61.01;96737.50;105115;1268;62228;-72
2022/04/08 02:53:29;;;;;;;4.50;1.20;;;;;;;9.29;60.82;96737.73;105420;1268;62131;-71
2022/04/08 02:55:55;;;;;;;3.00;0.70;;;;;;;9.26;61.14;96744.98;105130;1268;62136;-73
2022/04/08 02:58:22;;;;;;;4.10;1.70;;;;;;;9.20;60.51;96743.75;105392;1268;62007;-73
2022/04/08 03:00:48;;;;;;;3.20;1.20;;;;;;;9.15;60.74;96756.42;105434;1268;62094;-73
2022/04/08 03:03:15;;;;;;;3.60;1.50;;;;;;;9.07;60.80;96760.77;105430;1268;62099;-72
2022/04/08 03:05:41;;;;;;;3.50;1.20;;;;;;;8.99;60.90;96774.13;105168;1268;62114;-73
2022/04/08 03:08:08;;;;;;;3.40;1.20;;;;;;;8.92;60.56;96769.33;105427;1268;62097;-73
2022/04/08 03:10:34;;;;;;;3.30;1.40;;;;;;;8.88;58.73;96781.56;105458;1268;62142;-73
2022/04/08 03:13:01;;;;;;;2.90;0.70;;;;;;;8.88;59.02;96783.33;105474;1268;62044;-72
2022/04/08 03:15:27;;;;;;;4.50;1.20;;;;;;;8.83;58.85;96790.73;105415;1268;61975;-73
2022/04/08 03:17:54;;;;;;;3.10;1.20;;;;;;;8.77;58.66;96798.52;105374;1268;62066;-72
2022/04/08 03:20:20;;;;;;;4.50;1.20;;;;;;;8.72;58.38;96794.59;105123;1268;62581;-71
2022/04/08 03:22:47;;;;;;;2.70;1.50;;;;;;;8.66;58.58;96794.79;105414;1268;62138;-73
2022/04/08 03:25:14;;;;;;;3.10;1.10;;;;;;;8.58;58.61;96799.42;105493;1268;61966;-73
2022/04/08 03:27:41;;;;;;;3.60;1.90;;;;;;;8.52;58.57;96808.70;105402;1268;76284;-74
2022/04/08 03:30:08;;;;;;;2.70;1.00;;;;;;;8.47;58.68;96817.27;105439;1268;69640;-74
2022/04/08 03:32:34;;;;;;;4.30;1.00;;;;;;;8.41;58.89;96830.91;105375;1268;73268;-72
2022/04/08 03:35:01;;;;;;;2.90;1.00;;;;;;;8.32;58.97;96834.04;105360;1267;62144;-72
2022/04/08 03:37:29;;;;;;;2.20;0.90;;;;;;;8.26;59.18;96831.61;105375;1268;63595;-72
2022/04/08 03:39:56;;;;;;;2.80;0.80;;;;;;;8.18;58.81;96833.71;105107;1268;75594;-72
2022/04/08 03:42:23;;;;;;;2.60;0.80;;;;;;;8.15;58.45;96838.59;105364;1268;67825;-73
2022/04/08 03:44:51;;;;;;;4.30;0.90;;;;;;;8.10;58.41;96842.96;105375;1268;74215;-74
2022/04/08 03:47:19;;;;;;;2.10;0.80;;;;;;;8.06;57.67;96843.52;105383;1268;62228;-72
2022/04/08 03:49:48;;;;;;;3.80;0.90;;;;;;;8.04;57.56;96857.62;105521;1268;62094;-72
2022/04/08 03:52:14;;;;;;;5.40;2.40;;;;;;;8.01;57.42;96856.99;105379;1268;76375;-71
2022/04/08 03:54:41;;;;;;;3.20;1.80;;;;;;;7.98;57.30;96862.42;105370;1267;70347;-73
2022/04/08 03:57:08;;;;;;;3.50;1.00;;;;;;;7.96;56.30;96868.23;105365;1268;73397;-73
2022/04/08 03:59:34;;;;;;;4.60;1.10;;;;;;;7.98;56.53;96867.73;105389;1268;62491;-73
2022/04/08 04:02:01;;;;;;;3.20;0.80;;;;;;;7.97;56.34;96870.83;105452;1268;62206;-73
2022/04/08 04:04:27;;;;;;;3.40;1.10;;;;;;;7.95;56.38;96874.23;105405;1268;75846;-70
2022/04/08 04:06:54;;;;;;;4.30;1.20;;;;;;;7.90;56.53;96870.70;105401;1268;69965;-73
2022/04/08 04:09:21;;;;;;;1.90;1.10;;;;;;;7.85;56.42;96872.41;105402;1267;61981;-72
2022/04/08 04:11:47;;;;;;;4.20;1.20;;;;;;;7.81;56.60;96872.27;105443;1268;62023;-73
2022/04/08 04:14:13;;;;;;;3.50;1.50;;;;;;;7.78;56.68;96879.79;105372;1268;61986;-70
2022/04/08 04:16:40;;;;;;;5.70;1.30;;;;;;;7.73;56.78;96886.27;105410;1268;62100;-74
2022/04/08 04:19:07;;;;;;;4.70;1.40;;;;;;;7.71;56.71;96881.31;105389;1268;70426;-72
2022/04/08 04:21:33;;;;;;;2.80;1.10;;;;;;;7.72;56.82;96884.23;105412;1268;72723;-74
2022/04/08 04:24:00;;;;;;;3.60;1.40;;;;;;;7.76;56.88;96886.89;105395;1268;62043;-74
2022/04/08 04:26:26;;;;;;;5.10;2.00;;;;;;;8.03;56.69;96888.89;105304;1267;62052;-72
2022/04/08 04:28:53;;;;;;;4.10;1.60;;;;;;;8.50;56.29;96899.27;105367;1268;62055;-73
2022/04/08 04:31:19;;;;;;;2.70;1.70;;;;;;;8.90;55.84;96892.02;105098;1268;61969;-72
2022/04/08 04:33:46;;;;;;;3.00;1.90;;;;;;;9.25;55.25;96891.70;105365;1268;62049;-74
2022/04/08 04:36:13;;;;;;;3.50;1.70;;;;;;;9.56;54.75;96895.35;105123;1268;62161;-73
2022/04/08 04:38:39;;;;;;;3.80;2.10;;;;;;;9.84;54.42;96896.14;105363;1268;62091;-73
2022/04/08 04:41:06;;;;;;;3.50;2.10;;;;;;;10.09;53.95;96901.39;105375;1268;76090;-73
2022/04/08 04:43:32;;;;;;;4.70;2.10;;;;;;;10.37;53.66;96904.59;105085;1268;69271;-72
2022/04/08 04:45:59;;;;;;;4.10;2.70;;;;;;;10.70;53.45;96905.28;105330;1268;74427;-74
2022/04/08 04:48:25;;;;;;;3.80;1.70;;;;;;;10.97;53.19;96908.58;105371;1268;62056;-73
2022/04/08 04:50:54;;;;;;;4.50;1.80;;;;;;;11.18;52.89;96911.55;105384;1267;62838;-74
2022/04/08 04:53:20;;;;;;;7.10;1.60;;;;;;;11.38;52.72;96916.91;105362;1268;76097;-72
2022/04/08 04:55:47;;;;;;;4.00;1.50;;;;;;;11.44;52.42;96919.16;105348;1268;62128;-72
2022/04/08 04:58:14;;;;;;;2.40;1.20;;;;;;;11.61;51.87;96923.63;105319;1268;62126;-72
2022/04/08 05:00:40;;;;;;;2.40;1.30;;;;;;;11.79;51.55;96924.00;105345;1268;62063;-74
2022/04/08 05:03:08;;;;;;;3.70;1.60;;;;;;;11.84;50.97;96929.77;105349;1268;62172;-72
2022/04/08 05:05:35;;;;;;;2.30;1.30;;;;;;;11.91;50.08;96926.87;105264;1268;75914;-74
2022/04/08 05:08:03;;;;;;;1.40;1.10;;;;;;;12.09;50.05;96933.90;105397;1267;70333;-72
2022/04/08 05:10:31;;;;;;;1.70;0.80;;;;;;;12.29;49.86;96935.70;105363;1268;73116;-72
2022/04/08 05:13:03;;;;;;;3.20;1.50;;;;;;;12.44;49.30;96940.02;105787;1268;62091;-72
2022/04/08 05:15:32;;;;;;;4.00;1.50;;;;;;;12.61;49.05;96949.59;105338;1268;62072;-73
2022/04/08 05:17:59;;;;;;;3.50;1.40;;;;;;;12.70;48.45;96955.30;105104;1268;75958;-75
2022/04/08 05:20:26;;;;;;;2.60;1.30;;;;;;;12.79;48.18;96962.64;105347;1268;70460;-72
2022/04/08 05:22:53;;;;;;;3.00;1.20;;;;;;;12.83;47.92;96965.14;105331;1268;73411;-72
2022/04/08 05:25:20;;;;;;;4.20;1.60;;;;;;;12.91;47.89;96970.02;105348;1268;62305;-74
2022/04/08 05:27:46;;;;;;;2.20;1.70;;;;;;;12.90;47.46;96966.73;105111;1268;62502;-73
2022/04/08 05:30:18;;;;;;;3.60;1.40;;;;;;;12.93;47.15;96967.41;105299;1268;77148;-73
2022/04/08 05:32:48;;;;;;;3.50;1.80;;;;;;;12.98;46.67;96968.91;105371;1268;68578;-74
2022/04/08 05:35:18;;;;;;;3.60;1.50;;;;;;;13.00;45.77;96970.63;105442;1268;73273;-73
2022/04/08 05:37:46;;;;;;;3.10;1.40;;;;;;;12.95;46.06;96980.38;105374;1268;62052;-74
2022/04/08 05:40:20;;;;;;;4.10;1.50;;;;;;;12.99;45.50;96981.75;105651;1268;62050;-72
2022/04/08 05:42:49;;;;;;;3.60;1.40;;;;;;;13.07;45.81;96986.80;105362;1266;77235;-72
2022/04/08 05:45:21;;;;;;;4.40;1.20;;;;;;;13.11;44.82;96987.02;105374;1268;70497;-73
2022/04/08 05:47:54;;;;;;;3.10;1.80;;;;;;;13.06;45.04;96991.85;105354;1268;73344;-72
2022/04/08 05:50:21;;;;;;;4.60;2.40;;;;;;;13.08;44.95;96999.66;105363;1268;62155;-73
2022/04/08 05:52:48;;;;;;;4.50;1.30;;;;;;;13.09;44.56;96997.81;105405;1268;62533;-74
2022/04/08 05:55:15;;;;;;;4.40;1.60;;;;;;;13.03;43.71;97001.29;105339;1268;75915;-72
2022/04/08 05:57:41;;;;;;;6.30;1.60;;;;;;;13.03;44.30;97012.70;105353;1268;70276;-74
2022/04/08 06:00:10;;;;;;;1.80;1.30;;;;;;;13.06;44.16;97018.95;105306;1268;74711;-74
2022/04/08 06:02:38;;;;;;;3.90;1.30;;;;;;;13.06;43.70;97017.79;105688;1268;62179;-75
2022/04/08 06:05:05;;;;;;;3.30;1.00;;;;;;;12.98;44.11;97021.79;105129;1268;61961;-73
2022/04/08 06:07:32;;;;;;;3.00;1.10;;;;;;;13.04;43.85;97025.34;105316;1268;77557;-73
2022/04/08 06:10:00;;;;;;;2.70;1.00;;;;;;;13.13;44.03;97027.52;105350;1268;69271;-72
2022/04/08 06:12:28;;;;;;;2.60;1.00;;;;;;;13.16;43.49;97023.64;105297;1268;74484;-73
2022/04/08 06:14:54;;;;;;;2.90;0.90;;;;;;;13.13;43.06;97026.41;105354;1268;62070;-73
2022/04/08 06:17:21;;;;;;;6.60;1.20;;;;;;;13.00;42.94;97034.76;105328;1268;61963;-72
2022/04/08 06:19:49;;;;;;;4.00;1.50;;;;;;;12.97;43.01;97039.73;105112;1268;76093;-73
2022/04/08 06:22:15;;;;;;;3.30;1.10;;;;;;;12.96;42.73;97039.00;105380;1268;69119;-73
2022/04/08 06:24:42;;;;;;;5.00;1.20;;;;;;;12.88;42.19;97035.58;105414;1268;62056;-74
2022/04/08 06:27:08;;;;;;;4.00;1.30;;;;;;;12.82;42.22;97040.29;105414;1268;62098;-73
2022/04/08 06:29:35;;;;;;;3.20;1.20;;;;;;;12.79;42.01;97039.62;105392;1268;62092;-72
2022/04/08 06:32:01;;;;;;;6.40;1.70;;;;;;;12.75;42.26;97046.39;105371;1268;62116;-73
2022/04/08 06:34:28;;;;;;;4.00;1.60;;;;;;;12.72;42.46;97045.73;105324;1268;62097;-72
2022/04/08 06:36:54;;;;;;;4.90;1.40;;;;;;;12.69;42.59;97051.48;105389;1267;62111;-71
2022/04/08 06:39:21;;;;;;;4.40;1.90;;;;;;;12.62;43.00;97055.31;105373;1268;62167;-73
2022/04/08 06:41:47;;;;;;;2.70;1.00;;;;;;;12.47;42.84;97049.77;105378;1268;62032;-73
2022/04/08 06:44:14;;;;;;;5.60;1.40;;;;;;;12.23;42.69;97048.73;105368;1267;62221;-74
2022/04/08 06:46:40;;;;;;;3.70;1.70;;;;;;;11.99;42.85;97059.91;105077;1268;62228;-72
2022/04/08 06:49:07;;;;;;;4.20;1.30;;;;;;;11.90;43.62;97067.59;105409;1268;62171;-72
2022/04/08 06:51:33;;;;;;;4.70;1.40;;;;;;;11.94;43.27;97065.27;105372;1268;62155;-73
2022/04/08 06:54:00;;;;;;;3.60;0.90;;;;;;;11.90;43.44;97066.38;105385;1268;62069;-74
2022/04/08 06:56:28;;;;;;;4.00;1.60;;;;;;;11.85;43.25;97076.77;105338;1268;62161;-72
2022/04/08 06:58:55;;;;;;;3.40;1.20;;;;;;;11.92;43.42;97076.88;105356;1267;69558;-72
2022/04/08 07:01:22;;;;;;;4.70;1.20;;;;;;;11.92;43.54;97083.55;105362;1268;63560;-73
2022/04/08 07:03:49;;;;;;;4.30;1.10;;;;;;;11.88;43.04;97090.40;105386;1267;62099;-73
2022/04/08 07:06:15;;;;;;;3.50;1.20;;;;;;;11.84;43.33;97093.26;105157;1268;62588;-73
2022/04/08 07:08:42;;;;;;;2.20;0.90;;;;;;;11.97;43.36;97095.04;105394;1268;77226;-72
2022/04/08 07:11:09;;;;;;;3.80;1.10;;;;;;;12.09;43.06;97097.11;105359;1268;62000;-72
2022/04/08 07:13:38;;;;;;;4.30;1.30;;;;;;;12.23;43.29;97104.95;105376;1268;74592;-73
2022/04/08 07:16:04;;;;;;;5.00;2.90;;;;;;;12.21;43.21;97098.91;105328;1268;62101;-72
2022/04/08 07:18:31;;;;;;;5.20;1.50;;;;;;;12.24;43.14;97096.45;105339;1268;62245;-73
2022/04/08 07:20:57;;;;;;;4.10;1.40;;;;;;;12.19;42.72;97113.52;105125;1268;77200;-72
2022/04/08 07:23:24;;;;;;;3.40;1.10;;;;;;;12.00;42.00;97114.98;105377;1267;62055;-72
2022/04/08 07:25:51;;;;;;;4.50;1.00;;;;;;;11.87;42.44;97118.59;105472;1268;73682;-73
2022/04/08 07:28:17;;;;;;;3.80;1.30;;;;;;;11.80;42.61;97120.77;105129;1268;62100;-73
2022/04/08 07:30:44;;;;;;;2.90;1.30;;;;;;;11.89;43.49;97112.91;105353;1268;62078;-73
2022/04/08 07:33:10;;;;;;;8.60;1.80;;;;;;;12.06;43.45;97123.42;105121;1269;62267;-72
2022/04/08 07:35:39;;;;;;;3.30;1.20;;;;;;;12.24;43.82;97128.36;105372;1268;62069;-72
2022/04/08 07:38:05;;;;;;;4.90;1.20;;;;;;;12.39;43.57;97123.13;105082;1268;74254;-72
2022/04/08 07:40:32;;;;;;;4.30;1.20;;;;;;;12.51;42.89;97124.66;105314;1268;61950;-72
2022/04/08 07:42:59;;;;;;;2.90;1.00;;;;;;;12.52;43.04;97126.66;105392;1267;62157;-73
2022/04/08 07:45:29;;;;;;;3.10;1.20;;;;;;;12.61;42.79;97130.17;105336;1268;62178;-72
2022/04/08 07:47:57;;;;;;;4.70;1.60;;;;;;;12.80;43.23;97131.59;105371;1268;69193;-72
2022/04/08 07:50:24;;;;;;;3.30;1.10;;;;;;;12.99;42.43;97124.21;105350;1268;73180;-73
2022/04/08 07:52:51;;;;;;;4.90;1.20;;;;;;;13.03;42.46;97134.84;105341;1268;62114;-74
2022/04/08 07:55:20;;;;;;;4.20;1.10;;;;;;;13.06;42.02;97135.45;105397;1268;62180;-74
2022/04/08 07:57:48;;;;;;;4.10;1.10;;;;;;;13.10;40.96;97135.29;105556;1268;76031;-72
2022/04/08 08:00:20;;;;;;;4.70;1.20;;;;;;;13.06;41.79;97135.38;105372;1268;69311;-74
2022/04/08 08:02:48;;;;;;;5.70;2.00;;;;;;;13.22;42.33;97138.91;105333;1268;74121;-73
2022/04/08 08:05:15;;;;;;;4.00;1.70;;;;;;;13.31;41.61;97149.14;105385;1268;62093;-72
2022/04/08 08:08:03;;;;;;;5.60;1.20;;;;;;;13.29;41.62;97151.52;105363;1268;62090;-72
2022/04/08 08:10:35;;;;;;;2.50;1.30;;;;;;;13.25;41.13;97154.78;105344;1268;77184;-73
2022/04/08 08:13:03;;;;;;;3.40;0.90;;;;;;;13.21;41.74;97162.13;105388;1268;69272;-71
2022/04/08 08:15:32;;;;;;;4.00;1.00;;;;;;;13.44;41.00;97167.23;105373;1268;73112;-72
2022/04/08 08:17:59;;;;;;;1.80;0.90;;;;;;;13.39;40.08;97170.20;105076;1268;62165;-73
2022/04/08 08:20:26;;;;;;;2.60;0.90;;;;;;;13.26;40.16;97174.83;105384;1268;62205;-74
2022/04/08 08:22:53;;;;;;;3.40;1.30;;;;;;;13.17;39.55;97180.90;105386;1268;74500;-72
2022/04/08 08:25:20;;;;;;;1.90;0.90;;;;;;;13.09;39.97;97186.14;105384;1267;70238;-72
2022/04/08 08:28:04;;;;;;;3.60;1.30;;;;;;;13.00;39.83;97193.27;105409;1268;74015;-72
2022/04/08 08:30:31;;;;;;;2.50;1.20;;;;;;;13.07;40.23;97194.11;105550;1268;62163;-72
2022/04/08 08:32:58;;;;;;;1.90;1.10;;;;;;;13.14;39.26;97194.84;105375;1267;62078;-73
2022/04/08 08:35:25;;;;;;;5.40;1.40;;;;;;;13.20;39.62;97195.13;105370;1268;75963;-72
2022/04/08 08:37:52;;;;;;;2.00;1.00;;;;;;;13.24;39.46;97196.64;105375;1268;69524;-71
2022/04/08 08:40:20;;;;;;;5.80;1.60;;;;;;;13.28;39.78;97205.09;105287;1268;74486;-72
2022/04/08 08:42:47;;;;;;;4.90;1.20;;;;;;;13.26;39.70;97211.21;105417;1268;62149;-72
2022/04/08 08:45:15;;;;;;;3.60;1.00;;;;;;;13.13;39.80;97212.59;105485;1268;62033;-74
2022/04/08 08:47:49;;;;;;;4.30;1.50;;;;;;;12.88;39.01;97220.95;105403;1267;74956;-71
2022/04/08 08:50:17;;;;;;;4.10;1.10;;;;;;;12.64;39.30;97217.54;105444;1267;69387;-73
2022/04/08 08:52:49;;;;;;;2.80;1.20;;;;;;;12.60;39.75;97215.28;105277;1268;73141;-73
2022/04/08 08:55:15;;;;;;;5.00;1.40;;;;;;;12.68;40.12;97221.20;105394;1268;62154;-73
2022/04/08 08:57:45;;;;;;;3.80;0.90;;;;;;;12.82;40.22;97219.59;105413;1268;62056;-72
2022/04/08 09:00:13;;;;;;;3.00;1.10;;;;;;;13.07;40.17;97219.42;105322;1268;75918;-74
2022/04/08 09:02:41;;;;;;;3.70;1.40;;;;;;;13.24;39.32;97209.11;105212;1268;69466;-73
2022/04/08 09:05:14;;;;;;;4.80;1.30;;;;;;;13.33;38.96;97214.09;105334;1267;72705;-72
2022/04/08 09:07:41;;;;;;;5.30;1.30;;;;;;;13.65;39.47;97212.92;105397;1268;62180;-73
2022/04/08 09:10:09;;;;;;;2.40;1.00;;;;;;;13.99;38.99;97212.10;105462;1271;61954;-72
2022/04/08 09:12:35;;;;;;;1.40;0.90;;;;;;;14.14;37.48;97215.30;105325;1268;75865;-73
2022/04/08 09:15:03;;;;;;;2.70;1.10;;;;;;;14.06;37.47;97215.45;105317;1268;62059;-72
2022/04/08 09:17:30;;;;;;;5.10;1.40;;;;;;;13.99;37.63;97225.83;105390;1268;73305;-73
2022/04/08 09:19:59;;;;;;;3.20;1.30;;;;;;;13.92;37.69;97229.65;105327;1268;62423;-72
2022/04/08 09:22:36;;;;;;;6.60;1.60;;;;;;;13.83;37.80;97233.66;105420;1268;61999;-74
2022/04/08 09:25:12;;;;;;;1.70;1.10;;;;;;;13.65;37.97;97225.48;105173;1268;76979;-72
2022/04/08 09:27:40;;;;;;;3.00;1.10;;;;;;;13.53;37.88;97236.06;105283;1265;70285;-72
2022/04/08 09:30:08;;;;;;;2.90;1.20;;;;;;;13.35;38.53;97233.58;105335;1268;72494;-71
2022/04/08 09:32:35;;;;;;;3.50;1.00;;;;;;;13.22;38.03;97233.25;105289;1268;62041;-71
2022/04/08 09:35:04;;;;;;;2.50;1.00;;;;;;;13.20;38.35;97230.27;105278;1268;62185;-71
2022/04/08 09:37:30;;;;;;;3.40;1.30;;;;;;;13.31;39.15;97227.63;105108;1268;75414;-72
2022/04/08 09:40:05;;;;;;;2.60;1.10;;;;;;;13.73;39.33;97224.34;105314;1268;70674;-71
2022/04/08 09:42:42;;;;;;;2.90;1.20;;;;;;;13.93;39.17;97236.27;105266;1268;73143;-72
2022/04/08 09:45:11;;;;;;;4.00;1.00;;;;;;;14.06;38.53;97232.38;105393;1268;62056;-72
2022/04/08 09:47:38;;;;;;;5.10;1.20;;;;;;;14.19;38.33;97231.50;105181;1271;62123;-72
2022/04/08 09:50:07;;;;;;;3.20;1.20;;;;;;;14.26;38.26;97237.86;105257;1269;76218;-72
2022/04/08 09:52:34;;;;;;;2.60;1.00;;;;;;;14.13;37.20;97238.48;105354;1268;69294;-72
2022/04/08 09:55:05;;;;;;;4.90;1.10;;;;;;;13.89;36.58;97228.41;105280;1268;72526;-72
2022/04/08 09:57:36;;;;;;;2.40;1.10;;;;;;;13.79;36.91;97223.67;105134;1268;62145;-73
2022/04/08 10:00:04;;;;;;;4.40;1.30;;;;;;;13.87;37.27;97236.27;105306;1268;62062;-72
2022/04/08 10:02:35;;;;;;;2.90;1.30;;;;;;;14.07;37.44;97234.27;105319;1268;75216;-70
2022/04/08 10:05:02;;;;;;;1.50;0.70;;;;;;;14.24;37.09;97229.56;105332;1268;68277;-70
2022/04/08 10:07:30;;;;;;;2.30;0.70;;;;;;;14.27;36.93;97230.63;105315;1268;74350;-70
2022/04/08 10:10:06;;;;;;;2.50;1.00;;;;;;;14.15;36.59;97234.06;105308;1268;62110;-70
2022/04/08 10:12:35;;;;;;;3.00;1.00;;;;;;;14.10;36.70;97238.25;105308;1268;61985;-70
2022/04/08 10:15:11;;;;;;;4.90;1.40;;;;;;;14.13;36.45;97234.73;104891;1268;76174;-70
2022/04/08 10:17:37;;;;;;;4.40;0.80;;;;;;;14.18;37.13;97238.11;105381;1268;69515;-70
2022/04/08 10:20:21;;;;;;;4.20;1.10;;;;;;;14.17;37.25;97235.83;105103;1268;62187;-69
2022/04/08 10:22:48;;;;;;;2.70;1.30;;;;;;;14.34;37.36;97231.70;105355;1268;62081;-72
2022/04/08 10:25:19;;;;;;;1.40;0.90;;;;;;;14.40;36.91;97235.44;105292;1268;62071;-71
2022/04/08 10:27:46;;;;;;;4.30;0.90;;;;;;;14.42;36.86;97240.43;105461;1268;75650;-69
2022/04/08 10:30:21;;;;;;;2.30;0.90;;;;;;;14.59;36.77;97242.71;105336;1268;69298;-69
2022/04/08 10:33:06;;;;;;;2.30;1.10;;;;;;;14.62;36.89;97241.96;105293;1268;74362;-70
2022/04/08 10:35:33;;;;;;;3.70;0.90;;;;;;;14.62;36.82;97248.81;105289;1268;62173;-71
2022/04/08 10:38:08;;;;;;;2.70;1.00;;;;;;;14.37;36.58;97254.20;105309;1268;62155;-71
2022/04/08 10:40:37;;;;;;;4.50;1.00;;;;;;;14.29;36.63;97252.24;105092;1268;76501;-70
2022/04/08 10:43:06;;;;;;;2.60;0.80;;;;;;;14.07;36.48;97251.98;105191;1268;69245;-70
2022/04/08 10:45:34;;;;;;;2.90;1.00;;;;;;;13.81;37.21;97259.93;105372;1267;72342;-70
2022/04/08 10:48:10;;;;;;;2.70;0.90;;;;;;;13.70;37.26;97265.58;105321;1268;62213;-70
2022/04/08 10:50:38;;;;;;;2.60;0.70;;;;;;;13.76;37.17;97261.02;105037;1268;62402;-70
2022/04/08 10:53:13;;;;;;;4.10;1.30;;;;;;;13.73;37.08;97256.55;105396;1268;76001;-68
2022/04/08 10:56:09;;;;;;;2.90;1.20;;;;;;;13.84;37.43;97260.54;105091;1268;69265;-70
2022/04/08 10:58:46;;;;;;;3.30;0.90;;;;;;;13.79;37.13;97257.84;104878;1268;73384;-70
2022/04/08 11:01:13;;;;;;;1.90;0.80;;;;;;;13.71;36.75;97255.88;105399;1268;62068;-70
2022/04/08 11:03:45;;;;;;;1.40;0.70;;;;;;;13.66;36.70;97255.73;105268;1268;62062;-69
2022/04/08 11:06:14;;;;;;;4.30;1.10;;;;;;;13.69;35.95;97262.48;105322;1268;75410;-70
2022/04/08 11:08:41;;;;;;;3.50;0.70;;;;;;;13.61;35.92;97261.77;105339;1268;69290;-70
2022/04/08 11:11:07;;;;;;;2.70;1.10;;;;;;;13.55;36.34;97270.04;105308;1268;73822;-70
2022/04/08 11:13:34;;;;;;;4.30;1.20;;;;;;;13.50;35.94;97270.75;105240;1268;62103;-70
2022/04/08 11:16:00;;;;;;;2.50;1.20;;;;;;;13.50;36.27;97272.86;105312;1268;62528;-70
2022/04/08 11:18:27;;;;;;;5.90;1.60;;;;;;;13.74;36.48;97270.93;105248;1268;77210;-70
2022/04/08 11:20:54;;;;;;;2.80;0.80;;;;;;;14.04;36.86;97272.07;105313;1268;70141;-70
2022/04/08 11:23:28;;;;;;;3.40;0.80;;;;;;;14.41;36.50;97259.52;105265;1268;74165;-70
2022/04/08 11:25:56;;;;;;;2.80;0.80;;;;;;;14.65;36.42;97254.02;105454;1268;62064;-70
2022/04/08 11:28:23;;;;;;;2.60;0.90;;;;;;;14.84;36.03;97250.75;105334;1268;62075;-70
2022/04/08 11:30:59;;;;;;;1.60;0.90;;;;;;;15.11;36.73;97249.38;105301;1268;75911;-69
2022/04/08 11:33:26;;;;;;;1.90;0.70;;;;;;;15.30;36.11;97244.16;104998;1268;68950;-69